createdAt,value
2022-10-30T00:00:42.148Z,18.63
2022-10-30T00:03:13.152Z,18.37
2022-10-30T00:05:45.520Z,16.13
2022-10-30T00:08:14.637Z,15.33
2022-10-30T00:10:43.046Z,19.30
2022-10-30T00:13:12.082Z,21.00
2022-10-30T00:15:41.728Z,18.27
2022-10-30T00:18:09.789Z,18.40
2022-10-30T00:20:37.947Z,17.83
2022-10-30T00:23:05.955Z,17.90
2022-10-30T00:25:35.945Z,18.20
2022-10-30T00:28:04.102Z,15.97
2022-10-30T00:30:32.388Z,16.50
2022-10-30T00:33:02.155Z,21.57
2022-10-30T00:35:30.281Z,18.90
2022-10-30T00:37:58.856Z,19.60
2022-10-30T00:40:27.112Z,18.17
2022-10-30T00:42:55.104Z,18.30
2022-10-30T00:45:23.347Z,16.87
2022-10-30T00:47:55.887Z,17.60
2022-10-30T00:50:28.585Z,20.50
2022-10-30T00:53:02.953Z,21.07
2022-10-30T00:55:36.099Z,18.57
2022-10-30T00:58:07.790Z,23.97
2022-10-30T01:00:39.248Z,17.43
2022-10-30T01:03:07.622Z,21.77
2022-10-30T01:05:37.619Z,18.80
2022-10-30T01:08:06.030Z,18.93
2022-10-30T01:10:34.341Z,16.80
2022-10-30T01:13:03.139Z,23.73
2022-10-30T01:15:34.406Z,19.60
2022-10-30T01:18:20.897Z,22.77
2022-10-30T01:21:16.829Z,18.10
2022-10-30T01:23:57.282Z,22.90
2022-10-30T01:26:35.771Z,19.93
2022-10-30T01:29:27.727Z,21.77
2022-10-30T01:32:13.185Z,19.40
2022-10-30T01:34:47.542Z,19.40
2022-10-30T01:37:23.112Z,19.37
2022-10-30T01:39:51.119Z,15.63
2022-10-30T01:42:45.973Z,19.63
2022-10-30T01:45:23.097Z,21.83
2022-10-30T01:48:10.791Z,18.83
2022-10-30T01:50:45.929Z,22.73
2022-10-30T01:53:26.205Z,20.27
2022-10-30T01:56:04.265Z,20.70
2022-10-30T01:58:37.794Z,21.90
2022-10-30T02:01:06.281Z,15.77
2022-10-30T02:03:34.393Z,17.67
2022-10-30T02:06:02.850Z,19.70
2022-10-30T02:08:32.288Z,16.60
2022-10-30T02:11:01.076Z,17.60
2022-10-30T02:13:29.428Z,18.93
2022-10-30T02:15:58.054Z,19.13
2022-10-30T02:18:26.282Z,20.93
2022-10-30T02:20:55.642Z,21.07
2022-10-30T02:23:23.787Z,21.10
2022-10-30T02:25:52.156Z,25.07
2022-10-30T02:28:20.196Z,14.67
2022-10-30T02:30:48.252Z,16.30
2022-10-30T02:35:49.172Z,15.43
2022-10-30T02:38:18.720Z,19.50
2022-10-30T02:40:46.740Z,17.40
2022-10-30T02:43:14.731Z,15.13
2022-10-30T02:45:42.754Z,19.17
2022-10-30T02:50:43.675Z,20.33
2022-10-30T02:53:11.689Z,17.87
2022-10-30T02:55:41.055Z,17.03
2022-10-30T02:58:09.911Z,15.97
2022-10-30T03:00:37.979Z,20.03
2022-10-30T03:03:05.997Z,17.03
2022-10-30T03:05:34.007Z,16.60
2022-10-30T03:08:02.371Z,16.87
2022-10-30T03:10:30.605Z,22.37
2022-10-30T03:13:00.035Z,20.40
2022-10-30T03:15:28.077Z,17.90
2022-10-30T03:17:56.391Z,21.67
2022-10-30T03:20:24.518Z,23.40
2022-10-30T03:22:52.640Z,24.47
2022-10-30T03:25:23.757Z,18.67
2022-10-30T03:27:52.183Z,19.40
2022-10-30T03:30:21.579Z,23.60
2022-10-30T03:32:49.637Z,22.20
2022-10-30T03:35:17.741Z,17.87
2022-10-30T03:37:45.752Z,18.70
2022-10-30T03:40:13.965Z,19.50
2022-10-30T03:42:42.054Z,19.40
2022-10-30T03:45:10.729Z,21.17
2022-10-30T03:47:42.430Z,30.23
2022-10-30T03:50:10.759Z,18.07
2022-10-30T03:52:38.794Z,21.13
2022-10-30T03:55:07.895Z,18.50
2022-10-30T03:57:38.036Z,19.57
2022-10-30T04:00:07.357Z,19.77
2022-10-30T04:02:35.394Z,21.57
2022-10-30T04:05:05.254Z,17.53
2022-10-30T04:07:33.332Z,21.03
2022-10-30T04:10:01.335Z,19.40
2022-10-30T04:12:29.316Z,15.00
2022-10-30T04:14:57.320Z,18.37
2022-10-30T04:17:25.370Z,17.87
2022-10-30T04:19:53.358Z,22.63
2022-10-30T04:22:22.797Z,19.30
2022-10-30T04:24:50.782Z,21.43
2022-10-30T04:27:19.987Z,21.10
2022-10-30T04:29:48.339Z,17.67
2022-10-30T04:32:16.360Z,17.77
2022-10-30T04:34:44.357Z,23.03
2022-10-30T04:37:12.374Z,19.17
2022-10-30T04:39:45.471Z,21.43
2022-10-30T04:42:14.476Z,17.60
2022-10-30T04:44:42.488Z,18.87
2022-10-30T04:47:10.504Z,15.73
2022-10-30T04:49:38.530Z,19.47
2022-10-30T04:52:06.548Z,18.93
2022-10-30T04:54:34.555Z,14.67
2022-10-30T04:57:04.000Z,19.60
2022-10-30T04:59:32.005Z,15.87
2022-10-30T05:02:00.143Z,21.57
2022-10-30T05:04:28.245Z,16.87
2022-10-30T05:06:56.255Z,19.33
2022-10-30T05:09:24.312Z,16.87
2022-10-30T05:11:54.901Z,14.80
2022-10-30T05:14:30.337Z,18.93
2022-10-30T05:16:58.624Z,18.53
2022-10-30T05:19:26.777Z,22.43
2022-10-30T05:21:54.817Z,20.37
2022-10-30T05:24:22.850Z,18.17
2022-10-30T05:26:51.580Z,19.43
2022-10-30T05:29:19.623Z,19.53
2022-10-30T05:31:49.032Z,22.77
2022-10-30T05:34:17.092Z,17.90
2022-10-30T05:36:45.071Z,21.10
2022-10-30T05:39:13.094Z,25.77
2022-10-30T05:41:41.082Z,24.83
2022-10-30T05:44:09.111Z,22.63
2022-10-30T05:46:37.135Z,20.17
2022-10-30T05:49:06.700Z,21.93
2022-10-30T05:51:38.017Z,18.93
2022-10-30T05:54:08.595Z,18.10
2022-10-30T05:56:36.684Z,22.50
2022-10-30T05:59:04.696Z,19.83
2022-10-30T06:01:32.791Z,18.30
2022-10-30T06:04:00.913Z,16.93
2022-10-30T06:06:30.331Z,20.67
2022-10-30T06:08:58.551Z,18.27
2022-10-30T06:11:26.654Z,15.87
2022-10-30T06:13:54.655Z,16.90
2022-10-30T06:16:22.731Z,25.60
2022-10-30T06:18:50.822Z,16.03
2022-10-30T06:21:18.847Z,20.90
2022-10-30T06:23:49.678Z,14.77
2022-10-30T06:26:17.717Z,16.97
2022-10-30T06:28:45.731Z,19.50
2022-10-30T06:31:13.829Z,17.40
2022-10-30T06:33:41.891Z,19.27
2022-10-30T06:36:10.037Z,18.33
2022-10-30T06:38:38.057Z,16.73
2022-10-30T06:41:07.533Z,19.93
2022-10-30T06:43:35.864Z,21.37
2022-10-30T06:46:03.991Z,19.27
2022-10-30T06:48:32.096Z,19.53
2022-10-30T06:51:02.953Z,16.87
2022-10-30T06:53:31.204Z,18.47
2022-10-30T06:56:00.319Z,16.17
2022-10-30T06:58:30.120Z,18.47
2022-10-30T07:01:00.863Z,16.60
2022-10-30T07:03:28.941Z,17.03
2022-10-30T07:05:56.954Z,16.43
2022-10-30T07:08:25.338Z,18.97
2022-10-30T07:10:53.372Z,16.93
2022-10-30T07:13:21.425Z,19.30
2022-10-30T07:15:51.085Z,14.10
2022-10-30T07:18:19.115Z,16.87
2022-10-30T07:20:47.120Z,17.73
2022-10-30T07:23:15.226Z,15.20
2022-10-30T07:25:43.269Z,17.10
2022-10-30T07:28:11.301Z,19.37
2022-10-30T07:30:39.403Z,16.83
2022-10-30T07:33:11.117Z,13.90
2022-10-30T07:35:39.120Z,28.60
2022-10-30T07:38:08.591Z,25.10
2022-10-30T07:40:36.859Z,21.63
2022-10-30T07:43:05.738Z,22.40
2022-10-30T07:45:34.689Z,19.50
2022-10-30T07:48:03.089Z,20.23
2022-10-30T07:50:33.282Z,22.03
2022-10-30T07:53:01.319Z,21.83
2022-10-30T07:55:29.362Z,21.00
2022-10-30T07:57:57.636Z,20.43
2022-10-30T08:00:25.933Z,23.13
2022-10-30T08:02:58.251Z,20.03
2022-10-30T08:05:28.829Z,21.07
2022-10-30T08:07:59.914Z,21.10
2022-10-30T08:10:28.516Z,23.33
2022-10-30T08:12:56.512Z,17.87
2022-10-30T08:15:24.887Z,21.17
2022-10-30T08:17:53.203Z,17.80
2022-10-30T08:20:24.026Z,19.17
2022-10-30T08:22:53.535Z,16.07
2022-10-30T08:25:24.815Z,13.13
2022-10-30T08:27:54.994Z,14.60
2022-10-30T08:30:23.299Z,14.33
2022-10-30T08:32:51.323Z,18.50
2022-10-30T08:35:20.291Z,13.15
2022-10-30T08:37:48.889Z,15.27
2022-10-30T08:40:17.136Z,11.47
2022-10-30T08:42:51.772Z,13.63
2022-10-30T08:45:20.397Z,14.98
2022-10-30T08:47:48.589Z,15.50
2022-10-30T08:50:16.862Z,18.80
2022-10-30T08:52:44.917Z,17.63
2022-10-30T08:55:12.966Z,15.60
2022-10-30T08:57:40.995Z,17.90
2022-10-30T09:00:11.415Z,14.20
2022-10-30T09:02:40.572Z,11.50
2022-10-30T09:05:09.669Z,12.02
2022-10-30T09:07:37.832Z,11.23
2022-10-30T09:10:07.108Z,13.70
2022-10-30T09:12:35.167Z,18.67
2022-10-30T09:15:03.598Z,12.05
2022-10-30T09:17:33.047Z,13.48
2022-10-30T09:20:01.068Z,13.48
2022-10-30T09:22:29.138Z,12.18
2022-10-30T09:24:57.181Z,9.52
2022-10-30T09:27:25.264Z,13.55
2022-10-30T09:29:53.296Z,10.15
2022-10-30T09:32:21.367Z,10.05
2022-10-30T09:34:50.748Z,8.80
2022-10-30T09:37:19.207Z,10.95
2022-10-30T09:39:47.255Z,10.15
2022-10-30T09:42:46.010Z,13.85
2022-10-30T09:46:06.678Z,11.35
2022-10-30T09:48:51.739Z,9.68
2022-10-30T09:51:50.426Z,9.45
2022-10-30T09:54:30.133Z,11.70
2022-10-30T09:57:03.669Z,14.25
2022-10-30T09:59:43.729Z,11.23
2022-10-30T10:02:25.672Z,10.02
2022-10-30T10:04:59.114Z,11.90
2022-10-30T10:07:32.238Z,10.10
2022-10-30T10:10:04.480Z,10.90
2022-10-30T10:12:42.193Z,9.25
2022-10-30T10:15:18.882Z,7.18
2022-10-30T10:17:47.768Z,9.75
2022-10-30T10:20:20.981Z,11.00
2022-10-30T10:22:51.860Z,11.27
2022-10-30T10:25:21.586Z,11.40
2022-10-30T10:28:00.858Z,12.30
2022-10-30T10:30:37.560Z,13.00
2022-10-30T10:33:31.757Z,10.93
2022-10-30T10:36:23.550Z,13.25
2022-10-30T10:39:22.703Z,11.05
2022-10-30T10:42:00.124Z,11.38
2022-10-30T10:44:42.524Z,10.43
2022-10-30T10:47:38.100Z,8.23
2022-10-30T10:50:19.584Z,12.93
2022-10-30T10:52:54.413Z,12.38
2022-10-30T10:55:27.409Z,9.25
2022-10-30T10:57:59.694Z,9.65
2022-10-30T11:00:32.048Z,11.98
2022-10-30T11:03:06.218Z,10.27
2022-10-30T11:05:38.011Z,10.75
2022-10-30T11:08:13.742Z,10.30
2022-10-30T11:10:43.133Z,13.35
2022-10-30T11:13:13.825Z,11.95
2022-10-30T11:15:51.698Z,9.27
2022-10-30T11:18:19.687Z,15.75
2022-10-30T11:20:58.055Z,10.88
2022-10-30T11:23:34.156Z,9.40
2022-10-30T11:26:04.335Z,12.07
2022-10-30T11:28:47.069Z,9.07
2022-10-30T11:31:19.596Z,11.05
2022-10-30T11:33:48.288Z,9.10
2022-10-30T11:36:17.887Z,12.57
2022-10-30T11:38:51.546Z,11.65
2022-10-30T11:41:21.759Z,13.05
2022-10-30T11:43:50.675Z,10.75
2022-10-30T11:46:24.540Z,12.38
2022-10-30T11:48:55.022Z,9.63
2022-10-30T11:51:36.123Z,11.23
2022-10-30T11:54:05.378Z,10.98
2022-10-30T11:56:36.371Z,10.98
2022-10-30T11:59:06.120Z,14.88
2022-10-30T12:01:39.063Z,14.23
2022-10-30T12:04:23.212Z,12.88
2022-10-30T12:07:07.699Z,11.88
2022-10-30T12:09:43.439Z,12.07
2022-10-30T12:12:19.491Z,9.38
2022-10-30T12:14:47.705Z,15.68
2022-10-30T12:17:16.863Z,9.80
2022-10-30T12:19:50.292Z,9.73
2022-10-30T12:22:31.498Z,8.52
2022-10-30T12:25:01.085Z,12.57
2022-10-30T12:27:33.250Z,10.30
2022-10-30T12:30:10.293Z,10.75
2022-10-30T12:32:48.553Z,13.02
2022-10-30T12:35:28.453Z,13.57
2022-10-30T12:37:58.361Z,9.23
2022-10-30T12:40:31.296Z,10.70
2022-10-30T12:43:06.486Z,10.02
2022-10-30T12:45:41.284Z,10.77
2022-10-30T12:48:17.822Z,16.77
2022-10-30T12:50:57.424Z,11.65
2022-10-30T12:53:33.174Z,11.10
2022-10-30T12:56:05.936Z,13.35
2022-10-30T12:58:42.301Z,10.05
2022-10-30T13:01:26.782Z,13.07
2022-10-30T13:04:01.272Z,12.80
2022-10-30T13:06:33.727Z,9.60
2022-10-30T13:09:13.875Z,11.70
2022-10-30T13:11:49.330Z,17.83
2022-10-30T13:14:22.478Z,7.88
2022-10-30T13:16:53.322Z,8.95
2022-10-30T13:19:21.323Z,11.57
2022-10-30T13:21:56.923Z,13.38
2022-10-30T13:24:38.033Z,12.82
2022-10-30T13:27:11.129Z,14.73
2022-10-30T13:29:47.513Z,12.60
2022-10-30T13:32:31.720Z,12.20
2022-10-30T13:35:07.307Z,12.60
2022-10-30T13:37:41.403Z,20.38
2022-10-30T13:40:17.385Z,13.77
2022-10-30T13:42:58.142Z,10.40
2022-10-30T13:45:48.755Z,11.32
2022-10-30T13:48:28.327Z,11.30
2022-10-30T13:51:15.082Z,15.32
2022-10-30T13:53:47.759Z,12.75
2022-10-30T13:56:18.648Z,13.05
2022-10-30T13:58:50.480Z,15.60
2022-10-30T14:01:24.343Z,10.60
2022-10-30T14:03:58.793Z,17.42
2022-10-30T14:06:37.699Z,15.07
2022-10-30T14:09:15.290Z,15.45
2022-10-30T14:11:43.383Z,11.70
2022-10-30T14:14:28.250Z,16.80
2022-10-30T14:17:14.719Z,16.95
2022-10-30T14:20:22.000Z,11.10
2022-10-30T14:23:08.878Z,19.05
2022-10-30T14:25:37.050Z,12.18
2022-10-30T14:28:05.738Z,37.20
2022-10-30T14:30:36.302Z,13.02
2022-10-30T14:33:05.756Z,15.23
2022-10-30T14:35:39.514Z,14.90
2022-10-30T14:38:25.202Z,9.57
2022-10-30T14:41:21.034Z,11.90
2022-10-30T14:44:00.499Z,12.40
2022-10-30T14:46:34.455Z,14.07
2022-10-30T14:49:12.513Z,13.50
2022-10-30T14:51:46.008Z,17.23
2022-10-30T14:54:24.170Z,22.27
2022-10-30T14:56:54.100Z,21.13
2022-10-30T14:59:25.605Z,19.58
2022-10-30T15:02:00.466Z,19.48
2022-10-30T15:04:40.018Z,19.42
2022-10-30T15:07:16.879Z,18.67
2022-10-30T15:10:00.493Z,19.17
2022-10-30T15:13:06.502Z,18.00
2022-10-30T15:15:35.019Z,14.20
2022-10-30T15:18:06.793Z,15.98
2022-10-30T15:20:39.046Z,16.15
2022-10-30T15:23:13.029Z,18.08
2022-10-30T15:25:48.498Z,17.08
2022-10-30T15:28:19.606Z,16.23
2022-10-30T15:31:01.390Z,16.20
2022-10-30T15:33:30.397Z,13.15
2022-10-30T15:36:00.118Z,17.10
2022-10-30T15:38:28.284Z,11.27
2022-10-30T15:40:59.527Z,14.57
2022-10-30T15:43:32.279Z,13.35
2022-10-30T15:46:00.462Z,11.48
2022-10-30T15:48:31.202Z,17.83
2022-10-30T15:51:03.129Z,13.48
2022-10-30T15:53:39.655Z,14.02
2022-10-30T15:56:15.778Z,15.70
2022-10-30T15:58:51.023Z,17.70
2022-10-30T16:01:26.903Z,13.80
2022-10-30T16:03:55.647Z,16.25
2022-10-30T16:06:27.612Z,14.23
2022-10-30T16:08:55.798Z,11.88
2022-10-30T16:11:25.605Z,13.98
2022-10-30T16:13:54.473Z,14.93
2022-10-30T16:16:27.351Z,11.98
2022-10-30T16:19:03.840Z,13.98
2022-10-30T16:21:35.117Z,12.90
2022-10-30T16:24:05.225Z,11.52
2022-10-30T16:26:36.203Z,13.57
2022-10-30T16:29:17.002Z,14.85
2022-10-30T16:31:49.719Z,20.35
2022-10-30T16:34:23.726Z,15.07
2022-10-30T16:36:54.024Z,13.98
2022-10-30T16:39:23.414Z,15.13
2022-10-30T16:41:51.437Z,14.38
2022-10-30T16:44:26.239Z,10.57
2022-10-30T16:46:56.288Z,12.40
2022-10-30T16:49:26.880Z,12.18
2022-10-30T16:52:01.117Z,16.00
2022-10-30T16:54:32.370Z,13.93
2022-10-30T16:57:02.878Z,11.85
2022-10-30T16:59:37.039Z,16.13
2022-10-30T17:02:14.193Z,12.45
2022-10-30T17:04:45.782Z,12.05
2022-10-30T17:07:19.950Z,11.30
2022-10-30T17:09:49.780Z,12.20
2022-10-30T17:12:21.847Z,16.00
2022-10-30T17:15:02.846Z,15.43
2022-10-30T17:17:33.245Z,13.95
2022-10-30T17:20:03.447Z,12.20
2022-10-30T17:22:32.881Z,12.55
2022-10-30T17:25:01.433Z,9.55
2022-10-30T17:27:46.576Z,11.38
2022-10-30T17:30:45.139Z,10.18
2022-10-30T17:33:36.154Z,11.10
2022-10-30T17:36:05.399Z,10.30
2022-10-30T17:38:34.908Z,14.50
2022-10-30T17:41:03.552Z,9.27
2022-10-30T17:43:34.424Z,13.35
2022-10-30T17:46:02.379Z,10.70
2022-10-30T17:48:31.073Z,8.52
2022-10-30T17:50:59.047Z,17.20
2022-10-30T17:53:27.335Z,12.50
2022-10-30T17:56:00.805Z,8.02
2022-10-30T17:58:30.803Z,11.33
2022-10-30T18:00:59.206Z,11.85
2022-10-30T18:03:27.274Z,11.68
2022-10-30T18:05:55.873Z,9.25
2022-10-30T18:08:24.555Z,10.70
2022-10-30T18:10:52.566Z,12.82
2022-10-30T18:13:21.903Z,9.05
2022-10-30T18:15:54.714Z,12.27
2022-10-30T18:18:22.694Z,11.93
2022-10-30T18:20:50.711Z,12.43
2022-10-30T18:26:15.343Z,11.80
2022-10-30T18:28:44.724Z,10.75
2022-10-30T18:31:13.932Z,15.07
2022-10-30T18:33:42.412Z,9.53
2022-10-30T18:36:13.864Z,12.20
2022-10-30T18:38:41.913Z,7.90
2022-10-30T18:41:14.716Z,14.63
2022-10-30T18:43:46.782Z,8.63
2022-10-30T18:46:16.532Z,10.03
2022-10-30T18:48:45.370Z,12.07
2022-10-30T18:51:17.484Z,15.40
2022-10-30T18:53:51.476Z,10.67
2022-10-30T18:56:20.576Z,9.87
2022-10-30T18:58:53.456Z,10.43
2022-10-30T19:01:24.770Z,10.87
2022-10-30T19:03:52.798Z,14.17
2022-10-30T19:06:22.446Z,38.00
2022-10-30T19:08:50.818Z,44.40
2022-10-30T19:11:24.518Z,25.33
2022-10-30T19:13:55.486Z,16.57
2022-10-30T19:16:25.343Z,16.10
2022-10-30T19:18:53.827Z,19.20
2022-10-30T19:21:23.195Z,14.60
2022-10-30T19:23:51.444Z,14.13
2022-10-30T19:26:19.444Z,11.40
2022-10-30T19:28:47.458Z,10.13
2022-10-30T19:31:18.601Z,14.63
2022-10-30T19:33:51.364Z,11.53
2022-10-30T19:36:30.595Z,12.30
2022-10-30T19:38:58.956Z,12.93
2022-10-30T19:44:01.687Z,13.47
2022-10-30T19:46:30.994Z,10.73
2022-10-30T19:48:59.960Z,10.83
2022-10-30T19:51:28.895Z,11.53
2022-10-30T19:53:57.079Z,9.77
2022-10-30T19:56:25.159Z,11.10
2022-10-30T19:58:53.143Z,11.63
2022-10-30T20:01:21.242Z,13.53
2022-10-30T20:03:50.841Z,11.23
2022-10-30T20:06:19.339Z,7.73
2022-10-30T20:08:47.386Z,9.77
2022-10-30T20:11:15.437Z,14.80
2022-10-30T20:13:43.584Z,11.50
2022-10-30T20:16:12.394Z,10.93
2022-10-30T20:18:40.485Z,7.83
2022-10-30T20:21:13.357Z,10.43
2022-10-30T20:23:41.505Z,7.50
2022-10-30T20:26:22.798Z,12.77
2022-10-30T20:28:51.108Z,16.13
2022-10-30T20:31:19.281Z,11.77
2022-10-30T20:33:47.596Z,8.63
2022-10-30T20:36:17.207Z,8.03
2022-10-30T20:38:45.290Z,12.40
2022-10-30T20:41:21.920Z,8.27
2022-10-30T20:43:50.193Z,9.53
2022-10-30T20:46:18.551Z,13.30
2022-10-30T20:48:46.588Z,7.37
2022-10-30T20:51:16.229Z,5.97
2022-10-30T20:53:44.573Z,9.23
2022-10-30T20:56:12.851Z,8.20
2022-10-30T20:58:41.001Z,12.77
2022-10-30T21:01:09.363Z,12.90
2022-10-30T21:03:37.514Z,8.63
2022-10-30T21:06:06.228Z,8.13
2022-10-30T21:08:35.704Z,21.23
2022-10-30T21:11:05.502Z,8.80
2022-10-30T21:13:35.036Z,5.87
2022-10-30T21:16:04.423Z,11.37
2022-10-30T21:18:32.494Z,11.00
2022-10-30T21:21:02.479Z,11.33
2022-10-30T21:23:30.534Z,10.90
2022-10-30T21:26:03.724Z,14.97
2022-10-30T21:28:31.970Z,14.33
2022-10-30T21:31:03.245Z,12.53
2022-10-30T21:33:32.291Z,10.10
2022-10-30T21:36:11.760Z,10.87
2022-10-30T21:38:42.820Z,16.37
2022-10-30T21:41:14.412Z,9.20
2022-10-30T21:43:42.505Z,11.47
2022-10-30T21:46:12.485Z,11.40
2022-10-30T21:48:40.820Z,10.30
2022-10-30T21:51:10.504Z,7.23
2022-10-30T21:53:39.160Z,10.80
2022-10-30T21:56:09.774Z,7.63
2022-10-30T21:58:39.247Z,12.00
2022-10-30T22:01:08.273Z,13.50
2022-10-30T22:03:36.368Z,7.57
2022-10-30T22:06:08.518Z,8.17
2022-10-30T22:08:36.832Z,8.40
2022-10-30T22:11:06.176Z,7.20
2022-10-30T22:13:34.203Z,5.77
2022-10-30T22:16:05.529Z,9.97
2022-10-30T22:18:33.975Z,8.97
2022-10-30T22:21:03.308Z,12.00
2022-10-30T22:23:32.097Z,10.63
2022-10-30T22:26:01.907Z,8.77
2022-10-30T22:28:31.216Z,9.20
2022-10-30T22:31:04.976Z,9.10
2022-10-30T22:33:33.784Z,12.50
2022-10-30T22:36:06.637Z,6.37
2022-10-30T22:38:35.478Z,9.67
2022-10-30T22:41:11.815Z,10.97
2022-10-30T22:43:39.932Z,9.97
2022-10-30T22:46:10.529Z,7.23
2022-10-30T22:48:39.156Z,10.33
2022-10-30T22:51:13.483Z,12.87
2022-10-30T22:53:45.115Z,7.33
2022-10-30T22:56:15.930Z,12.10
2022-10-30T22:58:44.266Z,6.50
2022-10-30T23:01:16.100Z,7.37
2022-10-30T23:03:44.721Z,7.40
2022-10-30T23:06:13.946Z,6.30
2022-10-30T23:08:42.363Z,10.50
2022-10-30T23:11:10.527Z,7.33
2022-10-30T23:13:39.079Z,10.40
2022-10-30T23:16:09.684Z,7.43
2022-10-30T23:18:39.132Z,16.43
2022-10-30T23:21:09.739Z,6.90
2022-10-30T23:23:38.631Z,5.33
2022-10-30T23:26:08.764Z,9.37
2022-10-30T23:28:36.894Z,11.47
2022-10-30T23:31:06.049Z,7.27
2022-10-30T23:33:34.118Z,8.50
2022-10-30T23:36:05.737Z,9.97
2022-10-30T23:38:33.997Z,8.90
2022-10-30T23:41:02.145Z,12.37
2022-10-30T23:43:30.217Z,9.93
2022-10-30T23:45:58.264Z,12.43
2022-10-30T23:48:26.371Z,14.20
2022-10-30T23:50:54.432Z,19.63
2022-10-30T23:53:23.857Z,14.07
2022-10-30T23:55:53.042Z,14.30
2022-10-30T23:58:21.097Z,12.10
